Time;durP1;ratioP1;P1;durP2;ratioP2;P2;SDS_P1;SDS_P2;PMS_P1;PMS_P2;Temp;Humidity;BMP_temperature;BMP_pressure;BME280_temperature;BME280_humidity;BME280_pressure;Samples;Min_cycle;Max_cycle;Signal;HPM_P1;HPM_P2
2022/11/14 00:02:17;;;;;;;0.60;0.60;;;7.60;99.90;;;;;;5063723;28;20132;-65
2022/11/14 00:04:47;;;;;;;2.40;2.20;;;7.70;99.90;;;;;;5070441;28;20052;-65
2022/11/14 00:07:13;;;;;;;0.68;0.68;;;7.70;99.90;;;;;;5050060;28;20385;-66
2022/11/14 00:09:41;;;;;;;0.43;0.43;;;7.70;99.90;;;;;;5060722;28;20045;-65
2022/11/14 00:12:08;;;;;;;2.75;2.53;;;7.50;99.90;;;;;;5060990;28;20119;-65
2022/11/14 00:14:34;;;;;;;1.45;1.38;;;7.60;99.90;;;;;;5061735;28;20036;-66
2022/11/14 00:17:00;;;;;;;0.30;0.30;;;7.60;99.90;;;;;;5071681;28;20040;-66
2022/11/14 00:19:25;;;;;;;0.57;0.57;;;7.60;99.90;;;;;;5060668;28;20045;-66
2022/11/14 00:21:52;;;;;;;1.10;1.10;;;7.60;99.90;;;;;;5056599;28;20601;-67
2022/11/14 00:24:18;;;;;;;0.38;0.38;;;7.60;99.90;;;;;;5062767;28;20052;-67
2022/11/14 00:26:44;;;;;;;0.60;0.60;;;7.60;99.90;;;;;;5066943;28;20094;-66
2022/11/14 00:29:14;;;;;;;0.90;0.90;;;7.60;99.90;;;;;;5062917;28;20404;-66
2022/11/14 00:31:40;;;;;;;0.85;0.85;;;7.60;99.90;;;;;;5063387;28;20045;-66
2022/11/14 00:34:05;;;;;;;1.35;0.50;;;7.70;99.90;;;;;;5059235;28;20071;-66
2022/11/14 00:36:31;;;;;;;2.05;1.95;;;7.70;99.90;;;;;;5062986;28;20496;-66
2022/11/14 00:38:57;;;;;;;4.03;1.85;;;7.70;99.90;;;;;;5054949;28;20040;-66
2022/11/14 00:41:23;;;;;;;1.30;1.20;;;7.60;99.90;;;;;;5060856;28;20127;-66
2022/11/14 00:43:49;;;;;;;0.50;0.45;;;7.70;99.90;;;;;;5068939;28;20472;-66
2022/11/14 00:46:15;;;;;;;0.88;0.88;;;7.70;99.90;;;;;;5058368;28;20147;-66
2022/11/14 00:48:40;;;;;;;0.43;0.43;;;7.70;99.90;;;;;;5063932;28;20041;-66
2022/11/14 00:51:06;;;;;;;1.25;1.13;;;7.80;99.90;;;;;;5059418;28;20419;-66
2022/11/14 00:53:32;;;;;;;0.22;0.22;;;7.80;99.90;;;;;;5058249;28;20049;-66
2022/11/14 00:55:57;;;;;;;1.20;1.20;;;7.80;99.90;;;;;;5059632;28;20036;-66
2022/11/14 00:58:23;;;;;;;2.70;1.25;;;7.70;99.90;;;;;;5069261;28;20538;-66
2022/11/14 01:00:49;;;;;;;2.65;1.45;;;7.80;99.90;;;;;;5061367;28;20048;-66
2022/11/14 01:03:14;;;;;;;1.02;1.02;;;7.80;99.90;;;;;;5069709;28;20523;-66
2022/11/14 01:05:45;;;;;;;2.75;2.17;;;7.80;99.90;;;;;;5070937;28;20094;-64
2022/11/14 01:08:13;;;;;;;0.55;0.55;;;7.70;99.90;;;;;;5057678;28;20047;-65
2022/11/14 01:10:40;;;;;;;0.75;0.75;;;7.80;99.90;;;;;;5054465;28;20041;-63
2022/11/14 01:13:06;;;;;;;0.32;0.32;;;7.80;99.90;;;;;;5062726;28;20500;-64
2022/11/14 01:15:32;;;;;;;7.70;1.45;;;7.80;99.90;;;;;;5060305;28;20048;-64
2022/11/14 01:17:57;;;;;;;1.60;1.38;;;7.80;99.90;;;;;;5069382;28;20053;-64
2022/11/14 01:20:23;;;;;;;1.15;1.13;;;7.90;99.90;;;;;;5069569;28;20040;-64
2022/11/14 01:22:48;;;;;;;0.45;0.45;;;7.90;99.90;;;;;;5050507;28;20087;-64
2022/11/14 01:25:14;;;;;;;2.85;1.45;;;7.90;99.90;;;;;;5068822;28;20037;-64
2022/11/14 01:27:40;;;;;;;3.80;1.85;;;7.90;99.90;;;;;;5056606;28;20045;-64
2022/11/14 01:30:06;;;;;;;0.10;0.10;;;7.90;99.90;;;;;;5061272;28;20139;-64
2022/11/14 01:32:31;;;;;;;3.83;1.10;;;7.90;99.90;;;;;;5059109;28;20048;-64
2022/11/14 01:34:57;;;;;;;0.95;0.95;;;7.90;99.90;;;;;;5058627;28;20048;-64
2022/11/14 01:37:23;;;;;;;0.10;0.10;;;8.00;99.90;;;;;;5070713;28;20488;-64
2022/11/14 01:39:48;;;;;;;0.40;0.40;;;7.90;99.90;;;;;;5069983;28;20040;-64
2022/11/14 01:42:14;;;;;;;5.90;1.80;;;8.00;99.90;;;;;;5058973;28;20084;-64
2022/11/14 01:44:52;;;;;;;0.10;0.10;;;8.00;99.90;;;;;;5059350;28;20024;-64
2022/11/14 01:47:22;;;;;;;0.30;0.30;;;8.00;99.90;;;;;;5069311;28;20055;-64
2022/11/14 01:49:54;;;;;;;3.42;2.55;;;8.00;99.90;;;;;;5067653;28;20048;-64
2022/11/14 01:52:27;;;;;;;0.50;0.50;;;8.00;99.90;;;;;;5049690;28;20048;-64
2022/11/14 01:54:56;;;;;;;0.90;0.90;;;8.00;99.90;;;;;;5053175;28;20080;-64
2022/11/14 01:57:27;;;;;;;4.97;2.17;;;8.00;99.90;;;;;;5061386;28;20492;-64
2022/11/14 01:59:56;;;;;;;1.20;1.10;;;8.00;99.90;;;;;;5058729;28;20049;-64
2022/11/14 02:02:24;;;;;;;9.30;1.48;;;8.10;99.90;;;;;;5062592;28;20076;-64
2022/11/14 02:04:54;;;;;;;0.70;0.65;;;8.00;99.90;;;;;;5049523;28;20044;-64
2022/11/14 02:07:21;;;;;;;1.70;1.60;;;8.00;99.90;;;;;;5054665;28;20033;-64
2022/11/14 02:09:48;;;;;;;0.98;0.95;;;7.90;99.90;;;;;;5060912;28;20116;-64
2022/11/14 02:12:16;;;;;;;5.57;2.75;;;8.00;99.90;;;;;;5068706;28;20048;-64
2022/11/14 02:14:44;;;;;;;0.40;0.40;;;8.00;99.90;;;;;;5060799;28;20041;-64
2022/11/14 02:17:11;;;;;;;0.25;0.25;;;8.00;99.90;;;;;;5054784;28;20067;-64
2022/11/14 02:19:40;;;;;;;0.75;0.75;;;8.00;99.90;;;;;;5064195;28;20404;-64
2022/11/14 02:22:06;;;;;;;0.22;0.22;;;8.00;99.90;;;;;;5067728;28;20128;-64
2022/11/14 02:24:32;;;;;;;1.10;1.10;;;8.10;99.90;;;;;;5068101;28;20185;-64
2022/11/14 02:26:58;;;;;;;0.38;0.38;;;8.10;99.90;;;;;;5055151;28;20079;-64
2022/11/14 02:29:23;;;;;;;2.75;1.40;;;8.00;99.90;;;;;;5061096;28;20516;-64
2022/11/14 02:31:49;;;;;;;0.25;0.25;;;8.00;99.90;;;;;;5064893;28;20065;-64
2022/11/14 02:34:18;;;;;;;3.78;2.65;;;8.00;99.90;;;;;;5049519;28;20040;-64
2022/11/14 02:36:44;;;;;;;0.20;0.20;;;8.00;99.90;;;;;;5046355;28;20131;-64
2022/11/14 02:39:10;;;;;;;0.22;0.22;;;8.00;99.90;;;;;;5059463;28;20120;-64
2022/11/14 02:41:35;;;;;;;0.68;0.68;;;8.00;99.90;;;;;;5051632;28;20048;-64
2022/11/14 02:44:01;;;;;;;1.35;0.98;;;8.00;99.90;;;;;;5066333;28;20127;-64
2022/11/14 02:46:26;;;;;;;0.55;0.52;;;7.90;99.90;;;;;;5065229;28;20045;-64
2022/11/14 02:48:52;;;;;;;0.30;0.30;;;8.00;99.90;;;;;;5045990;28;20053;-64
2022/11/14 02:51:17;;;;;;;0.38;0.38;;;8.00;99.90;;;;;;5066721;28;20063;-64
2022/11/14 02:53:43;;;;;;;0.15;0.15;;;8.00;99.90;;;;;;5049483;28;20389;-64
2022/11/14 02:56:08;;;;;;;0.20;0.20;;;7.90;99.90;;;;;;5053264;28;20076;-64
2022/11/14 02:58:34;;;;;;;0.35;0.35;;;7.90;99.90;;;;;;5068465;28;20055;-64
2022/11/14 03:01:00;;;;;;;0.20;0.20;;;7.90;99.90;;;;;;5063062;28;20510;-64
2022/11/14 03:03:25;;;;;;;0.63;0.63;;;7.80;99.90;;;;;;5047431;28;20044;-64
2022/11/14 03:05:52;;;;;;;0.45;0.45;;;7.90;99.90;;;;;;5071374;28;20059;-64
2022/11/14 03:08:18;;;;;;;1.95;1.58;;;7.90;99.90;;;;;;5069071;28;20369;-63
2022/11/14 03:10:44;;;;;;;0.10;0.10;;;7.80;99.90;;;;;;5068071;28;20075;-64
2022/11/14 03:13:10;;;;;;;0.98;0.95;;;7.80;99.90;;;;;;5054613;28;20496;-64
2022/11/14 03:15:36;;;;;;;0.82;0.82;;;7.90;99.90;;;;;;5068138;28;20098;-64
2022/11/14 03:18:02;;;;;;;0.82;0.82;;;7.90;99.90;;;;;;5067300;28;20082;-64
2022/11/14 03:20:28;;;;;;;0.73;0.73;;;7.90;99.90;;;;;;5062291;28;20053;-64
2022/11/14 03:22:53;;;;;;;1.33;1.23;;;7.80;99.90;;;;;;5043630;28;20099;-64
2022/11/14 03:25:19;;;;;;;0.85;0.85;;;7.80;99.90;;;;;;5071586;28;20040;-64
2022/11/14 03:27:44;;;;;;;1.98;1.13;;;7.70;99.90;;;;;;5067723;28;20075;-64
2022/11/14 03:30:10;;;;;;;1.40;1.30;;;7.70;99.90;;;;;;5058593;28;21102;-64
2022/11/14 03:32:36;;;;;;;0.73;0.73;;;7.70;99.90;;;;;;5059563;28;20060;-64
2022/11/14 03:35:01;;;;;;;2.00;1.85;;;7.70;99.90;;;;;;5063109;28;20415;-64
2022/11/14 03:37:27;;;;;;;1.05;0.63;;;7.70;99.90;;;;;;5072686;28;20475;-64
2022/11/14 03:39:53;;;;;;;2.15;1.30;;;7.80;99.90;;;;;;5071378;28;20055;-64
2022/11/14 03:42:18;;;;;;;2.08;1.38;;;7.80;99.90;;;;;;5056659;28;20124;-64
2022/11/14 03:44:44;;;;;;;1.98;0.77;;;7.80;99.90;;;;;;5071473;28;20487;-64
2022/11/14 03:47:10;;;;;;;2.35;2.15;;;7.80;99.90;;;;;;5072029;28;20408;-64
2022/11/14 03:49:35;;;;;;;1.38;1.33;;;7.80;99.90;;;;;;5061592;28;20136;-64
2022/11/14 03:52:01;;;;;;;0.68;0.65;;;7.80;99.90;;;;;;5066068;28;20044;-64
2022/11/14 03:54:26;;;;;;;0.70;0.70;;;7.80;99.90;;;;;;5054797;28;20048;-64
2022/11/14 03:56:52;;;;;;;1.88;1.77;;;7.80;99.90;;;;;;5066194;28;20096;-64
2022/11/14 03:59:17;;;;;;;1.95;1.23;;;7.70;99.90;;;;;;5062892;28;20041;-64
2022/11/14 04:01:43;;;;;;;5.45;1.10;;;7.80;99.90;;;;;;5072379;28;20439;-64
2022/11/14 04:04:11;;;;;;;0.70;0.70;;;7.80;99.90;;;;;;5065078;28;20044;-64
2022/11/14 04:06:37;;;;;;;0.95;0.95;;;7.80;99.90;;;;;;5056997;28;20060;-64
2022/11/14 04:09:02;;;;;;;1.60;1.52;;;7.80;99.90;;;;;;5068557;28;20033;-64
2022/11/14 04:11:28;;;;;;;0.98;0.98;;;7.80;99.90;;;;;;5059352;28;20041;-64
2022/11/14 04:13:54;;;;;;;0.77;0.77;;;7.70;99.90;;;;;;5064201;28;20071;-64
2022/11/14 04:16:19;;;;;;;1.75;1.65;;;7.80;99.90;;;;;;5052258;28;20048;-64
2022/11/14 04:18:45;;;;;;;3.78;1.88;;;7.70;99.90;;;;;;5071832;28;20076;-64
2022/11/14 04:21:10;;;;;;;5.72;3.72;;;7.80;99.90;;;;;;5057385;28;20392;-64
2022/11/14 04:23:36;;;;;;;2.88;2.00;;;7.80;99.90;;;;;;5063921;28;20407;-64
2022/11/14 04:26:01;;;;;;;4.82;3.67;;;7.80;99.90;;;;;;5057347;28;20041;-64
2022/11/14 04:28:27;;;;;;;1.27;1.20;;;7.80;99.90;;;;;;5071181;28;20040;-64
2022/11/14 04:30:52;;;;;;;2.17;2.00;;;7.70;99.90;;;;;;5058884;28;20056;-64
2022/11/14 04:33:18;;;;;;;5.22;3.72;;;7.80;99.90;;;;;;5060986;28;20052;-64
2022/11/14 04:35:43;;;;;;;5.47;3.80;;;7.70;99.90;;;;;;5056073;28;20053;-64
2022/11/14 04:38:09;;;;;;;1.65;1.55;;;7.70;99.90;;;;;;5053477;28;20060;-64
2022/11/14 04:40:35;;;;;;;2.03;1.45;;;7.70;99.90;;;;;;5062655;28;20052;-64
2022/11/14 04:43:00;;;;;;;3.03;1.33;;;7.80;99.90;;;;;;5071073;28;20384;-64
2022/11/14 04:45:26;;;;;;;17.30;1.88;;;7.80;99.90;;;;;;5055145;28;20123;-64
2022/11/14 04:47:52;;;;;;;3.00;2.67;;;7.70;99.90;;;;;;5070503;28;20068;-64
2022/11/14 04:50:18;;;;;;;1.90;1.80;;;7.70;99.90;;;;;;5068240;28;20095;-63
2022/11/14 04:52:43;;;;;;;1.25;1.25;;;7.70;99.90;;;;;;5049932;28;20033;-64
2022/11/14 04:55:09;;;;;;;2.90;2.47;;;7.70;99.90;;;;;;5062957;28;20130;-64
2022/11/14 04:57:35;;;;;;;1.42;1.33;;;7.70;99.90;;;;;;5059194;28;20048;-64
2022/11/14 05:00:01;;;;;;;2.97;2.40;;;7.70;99.90;;;;;;5039265;28;20248;-64
2022/11/14 05:02:29;;;;;;;1.15;1.15;;;7.70;99.90;;;;;;5044490;28;20760;-64
2022/11/14 05:04:54;;;;;;;3.75;2.17;;;7.70;99.90;;;;;;5034816;28;20408;-64
2022/11/14 05:07:20;;;;;;;1.23;1.23;;;7.70;99.90;;;;;;5067924;28;20037;-64
2022/11/14 05:09:45;;;;;;;1.50;1.40;;;7.70;99.90;;;;;;5070045;28;20048;-64
2022/11/14 05:12:11;;;;;;;1.05;1.00;;;7.60;99.90;;;;;;5061662;28;20044;-64
2022/11/14 05:14:37;;;;;;;6.47;3.70;;;7.60;99.90;;;;;;5060858;28;20044;-64
2022/11/14 05:17:02;;;;;;;0.88;0.88;;;7.60;99.90;;;;;;5061982;28;20469;-64
2022/11/14 05:19:28;;;;;;;2.60;2.13;;;7.60;99.90;;;;;;5059691;28;20052;-64
2022/11/14 05:21:53;;;;;;;0.98;0.98;;;7.70;99.90;;;;;;5064986;28;20041;-64
2022/11/14 05:24:19;;;;;;;1.40;1.27;;;7.60;99.90;;;;;;5065747;28;20127;-64
2022/11/14 05:26:44;;;;;;;6.00;1.95;;;7.50;99.90;;;;;;5062088;28;20043;-64
2022/11/14 05:29:10;;;;;;;1.55;1.45;;;7.60;99.90;;;;;;5058440;28;20051;-64
2022/11/14 05:31:36;;;;;;;1.63;1.52;;;7.50;99.90;;;;;;5059242;28;20426;-64
2022/11/14 05:34:01;;;;;;;0.98;0.98;;;7.50;99.90;;;;;;5054225;28;20053;-64
2022/11/14 05:36:27;;;;;;;7.28;3.55;;;7.50;99.90;;;;;;5068349;28;20045;-64
2022/11/14 05:38:53;;;;;;;2.45;2.35;;;7.50;99.90;;;;;;5070284;28;20072;-64
2022/11/14 05:41:19;;;;;;;0.52;0.52;;;7.50;99.90;;;;;;5053580;28;20383;-64
2022/11/14 05:43:45;;;;;;;0.73;0.73;;;7.50;99.90;;;;;;5056386;28;20033;-64
2022/11/14 05:46:12;;;;;;;0.82;0.82;;;7.40;99.90;;;;;;5056108;28;20066;-64
2022/11/14 05:48:39;;;;;;;1.60;1.13;;;7.40;99.90;;;;;;5065527;28;20036;-65
2022/11/14 05:51:05;;;;;;;1.48;1.38;;;7.40;99.90;;;;;;5067293;28;20041;-65
2022/11/14 05:53:32;;;;;;;15.80;1.80;;;7.40;99.90;;;;;;5045012;28;20044;-65
2022/11/14 05:56:03;;;;;;;0.98;0.95;;;7.40;99.90;;;;;;5058431;28;20051;-65
2022/11/14 05:58:30;;;;;;;0.60;0.60;;;7.40;99.90;;;;;;5069919;28;20079;-65
2022/11/14 06:01:07;;;;;;;1.20;1.17;;;7.30;99.90;;;;;;5054593;28;20047;-65
2022/11/14 06:03:35;;;;;;;1.23;1.17;;;7.30;99.90;;;;;;5057054;28;20041;-65
2022/11/14 06:06:02;;;;;;;0.68;0.68;;;7.30;99.90;;;;;;5049418;28;20079;-65
2022/11/14 06:08:29;;;;;;;0.50;0.50;;;7.30;99.90;;;;;;5065558;28;20496;-65
2022/11/14 06:10:55;;;;;;;0.73;0.73;;;7.30;99.90;;;;;;5064936;28;20041;-65
2022/11/14 06:13:23;;;;;;;2.90;2.70;;;7.30;99.90;;;;;;5064749;28;20395;-65
2022/11/14 06:15:49;;;;;;;1.48;1.38;;;7.30;99.90;;;;;;5069292;28;20555;-65
2022/11/14 06:18:15;;;;;;;1.17;1.17;;;7.30;99.90;;;;;;5058859;28;20767;-65
2022/11/14 06:20:40;;;;;;;0.65;0.65;;;7.40;99.90;;;;;;5061280;28;20143;-65
2022/11/14 06:23:06;;;;;;;0.70;0.70;;;7.30;99.90;;;;;;5052836;28;20056;-65
2022/11/14 06:25:32;;;;;;;0.60;0.60;;;7.30;99.90;;;;;;5058202;28;20051;-65
2022/11/14 06:27:58;;;;;;;0.60;0.60;;;7.30;99.90;;;;;;5053848;28;20036;-65
2022/11/14 06:30:23;;;;;;;2.40;2.30;;;7.30;99.90;;;;;;5065645;28;20037;-65
2022/11/14 06:32:49;;;;;;;2.20;2.10;;;7.30;99.90;;;;;;5063634;28;20102;-65
2022/11/14 06:35:14;;;;;;;6.22;0.82;;;7.30;99.90;;;;;;5055442;28;20408;-65
2022/11/14 06:37:40;;;;;;;0.88;0.88;;;7.30;99.90;;;;;;5065024;28;20102;-65
2022/11/14 06:40:06;;;;;;;2.63;2.42;;;7.30;99.90;;;;;;5063799;28;20045;-65
2022/11/14 06:42:32;;;;;;;1.35;1.30;;;7.30;99.90;;;;;;5073082;28;20541;-65
2022/11/14 06:44:57;;;;;;;3.20;2.67;;;7.30;99.90;;;;;;5060447;28;20044;-65
2022/11/14 06:47:23;;;;;;;5.45;2.63;;;7.40;99.90;;;;;;5057421;28;20051;-65
2022/11/14 06:49:48;;;;;;;1.13;1.13;;;7.30;99.90;;;;;;5061749;28;20040;-65
2022/11/14 06:52:14;;;;;;;8.00;2.65;;;7.40;99.90;;;;;;5060687;28;20408;-65
2022/11/14 06:54:39;;;;;;;4.07;0.85;;;7.40;99.90;;;;;;5054153;28;20036;-65
2022/11/14 06:57:05;;;;;;;5.07;2.80;;;7.40;99.90;;;;;;5062381;28;20132;-65
2022/11/14 06:59:31;;;;;;;1.30;1.27;;;7.40;99.90;;;;;;5059779;28;20048;-65
2022/11/14 07:01:56;;;;;;;1.17;1.10;;;7.40;99.90;;;;;;5069091;28;20044;-65
2022/11/14 07:04:22;;;;;;;0.40;0.40;;;7.40;99.90;;;;;;5066100;28;20041;-65
2022/11/14 07:06:47;;;;;;;1.90;1.80;;;7.40;99.90;;;;;;5063176;28;20041;-65
2022/11/14 07:09:13;;;;;;;0.75;0.75;;;7.40;99.90;;;;;;5072160;28;20131;-65
2022/11/14 07:11:38;;;;;;;15.20;3.45;;;7.40;99.90;;;;;;5062674;28;20076;-64
2022/11/14 07:14:05;;;;;;;2.30;2.17;;;7.50;99.90;;;;;;5050969;28;20048;-66
2022/11/14 07:16:35;;;;;;;1.48;1.45;;;7.40;99.90;;;;;;5042646;28;20126;-66
2022/11/14 07:19:04;;;;;;;1.02;1.00;;;7.50;99.90;;;;;;5061180;28;20060;-65
2022/11/14 07:21:32;;;;;;;0.35;0.35;;;7.40;99.90;;;;;;5057612;28;20144;-65
2022/11/14 07:23:57;;;;;;;1.95;1.15;;;7.50;99.90;;;;;;5064144;28;20040;-65
2022/11/14 07:26:23;;;;;;;6.15;2.15;;;7.40;99.90;;;;;;5069439;28;20051;-66
2022/11/14 07:28:49;;;;;;;3.83;1.20;;;7.40;99.90;;;;;;5053199;28;20043;-65
2022/11/14 07:31:17;;;;;;;0.47;0.47;;;7.40;99.90;;;;;;5061189;28;20105;-66
2022/11/14 07:33:43;;;;;;;0.63;0.63;;;7.50;99.90;;;;;;5037170;28;20045;-65
2022/11/14 07:36:10;;;;;;;1.10;1.08;;;7.40;99.90;;;;;;5068321;28;20083;-65
2022/11/14 07:38:36;;;;;;;1.75;1.65;;;7.40;99.90;;;;;;5059088;28;20571;-65
2022/11/14 07:41:10;;;;;;;0.93;0.93;;;7.40;99.90;;;;;;5063150;28;20484;-65
2022/11/14 07:43:36;;;;;;;1.70;1.60;;;7.40;99.90;;;;;;5069356;28;20425;-65
2022/11/14 07:46:13;;;;;;;0.80;0.80;;;7.50;99.90;;;;;;5040030;28;20071;-65
2022/11/14 07:48:39;;;;;;;1.55;1.48;;;7.50;99.90;;;;;;5056530;28;20487;-65
2022/11/14 07:51:06;;;;;;;0.93;0.93;;;7.50;99.90;;;;;;5066081;28;20036;-65
2022/11/14 07:53:34;;;;;;;2.85;2.58;;;7.50;99.90;;;;;;5064254;28;20079;-65
2022/11/14 07:56:10;;;;;;;0.70;0.70;;;7.50;99.90;;;;;;5042951;28;20480;-65
2022/11/14 07:58:37;;;;;;;2.08;1.88;;;7.50;99.90;;;;;;5045535;28;20144;-65
2022/11/14 08:01:04;;;;;;;0.30;0.30;;;7.50;99.90;;;;;;5061546;28;20995;-65
2022/11/14 08:03:31;;;;;;;0.65;0.60;;;7.50;99.90;;;;;;5062075;28;20036;-65
2022/11/14 08:06:15;;;;;;;1.83;1.52;;;7.50;99.90;;;;;;5044077;28;20496;-65
2022/11/14 08:08:41;;;;;;;0.43;0.43;;;7.50;99.90;;;;;;5055562;28;20047;-64
2022/11/14 08:11:06;;;;;;;0.47;0.47;;;7.50;99.90;;;;;;5070089;28;20115;-65
2022/11/14 08:13:32;;;;;;;1.30;1.20;;;7.50;99.90;;;;;;5072074;28;20482;-65
2022/11/14 08:16:01;;;;;;;1.20;1.10;;;7.40;99.90;;;;;;5061215;28;20090;-65
2022/11/14 08:18:26;;;;;;;0.63;0.63;;;7.50;99.90;;;;;;5061730;28;20446;-65
2022/11/14 08:20:53;;;;;;;1.38;1.30;;;7.40;99.90;;;;;;5071545;28;20036;-65
2022/11/14 08:23:18;;;;;;;1.95;1.80;;;7.50;99.90;;;;;;5065824;28;20135;-65
2022/11/14 08:25:44;;;;;;;9.23;2.92;;;7.50;99.90;;;;;;5055487;28;20119;-66
2022/11/14 08:28:09;;;;;;;0.65;0.65;;;7.60;99.90;;;;;;5055021;28;20049;-65
2022/11/14 08:30:35;;;;;;;0.93;0.93;;;7.60;99.90;;;;;;5051293;28;20476;-65
2022/11/14 08:33:05;;;;;;;0.85;0.82;;;7.60;99.90;;;;;;5051431;28;20067;-65
2022/11/14 08:35:32;;;;;;;0.85;0.60;;;7.60;99.90;;;;;;5060351;28;20373;-65
2022/11/14 08:38:00;;;;;;;2.15;2.00;;;7.60;99.90;;;;;;5041700;28;20388;-64
2022/11/14 08:40:26;;;;;;;0.38;0.38;;;7.50;99.90;;;;;;5063665;28;20056;-65
2022/11/14 08:42:51;;;;;;;2.33;2.13;;;7.60;99.90;;;;;;5067439;28;20384;-64
2022/11/14 08:45:17;;;;;;;1.75;1.65;;;7.60;99.90;;;;;;5041684;28;20049;-65
2022/11/14 08:47:50;;;;;;;3.83;1.92;;;7.60;99.90;;;;;;5062981;28;20507;-65
2022/11/14 08:50:15;;;;;;;2.13;2.03;;;7.60;99.90;;;;;;5041799;28;20170;-65
2022/11/14 08:52:41;;;;;;;1.15;1.15;;;7.70;99.90;;;;;;5037900;28;20056;-65
2022/11/14 08:55:06;;;;;;;0.55;0.55;;;7.70;99.90;;;;;;5068783;28;20116;-65
2022/11/14 08:57:32;;;;;;;2.38;1.75;;;7.60;99.90;;;;;;5069628;28;20076;-65
2022/11/14 08:59:58;;;;;;;1.50;1.40;;;7.60;99.90;;;;;;5047541;28;20086;-64
2022/11/14 09:02:23;;;;;;;5.38;3.60;;;7.50;99.90;;;;;;5045702;28;20056;-65
2022/11/14 09:04:49;;;;;;;1.15;1.08;;;7.60;99.90;;;;;;5059783;28;20040;-64
2022/11/14 09:07:14;;;;;;;8.43;3.25;;;7.70;99.90;;;;;;5055263;28;20801;-64
2022/11/14 09:09:40;;;;;;;0.60;0.60;;;7.60;99.90;;;;;;5064914;28;20518;-64
2022/11/14 09:12:06;;;;;;;2.38;2.22;;;7.60;99.90;;;;;;5049658;28;20052;-65
2022/11/14 09:14:31;;;;;;;0.98;0.98;;;7.60;99.90;;;;;;5057792;28;20062;-65
2022/11/14 09:16:57;;;;;;;1.55;1.45;;;7.70;99.90;;;;;;5055002;28;20052;-65
2022/11/14 09:19:23;;;;;;;6.22;1.80;;;7.70;99.90;;;;;;5063969;28;20127;-65
2022/11/14 09:21:48;;;;;;;2.83;1.15;;;7.70;99.90;;;;;;5070412;28;20048;-65
2022/11/14 09:24:14;;;;;;;1.95;1.85;;;7.70;99.90;;;;;;5066606;28;20032;-65
2022/11/14 09:26:39;;;;;;;1.58;1.45;;;7.70;99.90;;;;;;5054292;28;20041;-65
2022/11/14 09:29:05;;;;;;;2.45;2.25;;;7.80;99.90;;;;;;5067142;28;20151;-65
2022/11/14 09:31:31;;;;;;;1.23;1.15;;;7.80;99.90;;;;;;5069655;28;20040;-65
2022/11/14 09:33:56;;;;;;;0.82;0.82;;;7.80;99.90;;;;;;5064587;28;20098;-65
2022/11/14 09:36:22;;;;;;;1.73;1.63;;;7.80;99.90;;;;;;5057286;28;20055;-65
2022/11/14 09:38:50;;;;;;;3.03;2.47;;;7.80;99.90;;;;;;5062562;28;20094;-65
2022/11/14 09:41:23;;;;;;;1.33;1.33;;;7.90;99.90;;;;;;5058475;28;20083;-65
2022/11/14 09:43:51;;;;;;;4.20;3.22;;;7.80;99.90;;;;;;5062500;28;20116;-65
2022/11/14 09:46:26;;;;;;;0.73;0.73;;;7.90;99.90;;;;;;5070601;28;20052;-65
2022/11/14 09:48:53;;;;;;;2.72;2.50;;;8.00;99.90;;;;;;5059474;28;20036;-65
2022/11/14 09:51:26;;;;;;;2.65;1.30;;;8.10;99.90;;;;;;5057266;28;20407;-65
2022/11/14 09:54:10;;;;;;;;;;;8.00;99.90;;;;;;5067898;28;20102;-65
2022/11/14 09:56:36;;;;;;;1.23;1.23;;;8.00;99.90;;;;;;5051818;28;20023;-65
2022/11/14 09:59:01;;;;;;;4.55;3.15;;;8.10;99.90;;;;;;5058466;28;20147;-65
2022/11/14 10:01:50;;;;;;;0.80;0.80;;;8.10;99.90;;;;;;5066450;28;20041;-65
2022/11/14 10:04:53;;;;;;;1.98;1.88;;;8.30;99.90;;;;;;5061479;28;20040;-65
2022/11/14 10:07:48;;;;;;;3.65;2.40;;;8.30;99.90;;;;;;5057675;28;20048;-64
2022/11/14 10:10:41;;;;;;;2.20;2.00;;;8.50;99.90;;;;;;5061718;28;20082;-65
2022/11/14 10:13:50;;;;;;;2.92;1.95;;;8.40;99.90;;;;;;5060840;28;20102;-65
2022/11/14 10:16:34;;;;;;;1.23;1.00;;;8.70;99.90;;;;;;4987856;28;20477;-65
2022/11/14 10:19:37;;;;;;;0.73;0.73;;;8.60;99.90;;;;;;5061195;28;20500;-65
2022/11/14 10:22:31;;;;;;;0.25;0.25;;;8.60;99.90;;;;;;5052589;28;20049;-65
2022/11/14 10:25:12;;;;;;;;;;;8.60;99.90;;;;;;5056710;28;20037;-65
2022/11/14 10:27:45;;;;;;;9.48;3.20;;;8.60;99.90;;;;;;5048669;28;19930;-65
2022/11/14 10:30:13;;;;;;;;;;;8.60;99.90;;;;;;5069495;28;20492;-65
2022/11/14 10:32:46;;;;;;;1.75;1.65;;;8.70;99.90;;;;;;5056251;28;19921;-64
2022/11/14 10:35:20;;;;;;;3.53;2.35;;;8.60;99.90;;;;;;5059896;28;20041;-64
2022/11/14 10:38:28;;;;;;;1.80;1.70;;;8.70;99.90;;;;;;5070312;28;20045;-64
2022/11/14 10:40:59;;;;;;;1.83;1.73;;;8.70;99.90;;;;;;5058643;28;20049;-64
2022/11/14 10:43:33;;;;;;;1.95;1.80;;;8.80;99.90;;;;;;5057215;28;20040;-64
2022/11/14 10:46:15;;;;;;;8.93;2.67;;;9.00;99.90;;;;;;5050185;28;20080;-65
2022/11/14 10:48:45;;;;;;;1.00;1.00;;;8.90;99.90;;;;;;5060396;28;20041;-63
2022/11/14 10:51:36;;;;;;;1.35;1.27;;;8.90;99.90;;;;;;5052535;28;20060;-63
2022/11/14 10:54:09;;;;;;;0.98;0.98;;;8.90;99.90;;;;;;5059383;28;20048;-64
2022/11/14 10:56:47;;;;;;;0.95;0.95;;;9.00;99.90;;;;;;5066216;28;20040;-64
2022/11/14 10:59:13;;;;;;;1.88;1.77;;;9.00;99.90;;;;;;5062523;28;20044;-64
2022/11/14 11:01:40;;;;;;;1.13;1.13;;;9.00;99.90;;;;;;5058166;28;20056;-64
2022/11/14 11:04:26;;;;;;;0.73;0.73;;;9.10;99.90;;;;;;5061674;28;20044;-64
2022/11/14 11:06:55;;;;;;;2.55;1.30;;;9.10;99.90;;;;;;5059413;28;20676;-65
2022/11/14 11:12:12;;;;;;;2.05;1.42;;;9.20;99.90;;;;;;5060907;28;20080;-65
2022/11/14 11:14:38;;;;;;;2.80;2.05;;;9.40;99.90;;;;;;5055770;28;20040;-65
2022/11/14 11:17:14;;;;;;;1.77;1.65;;;9.40;99.90;;;;;;5060315;28;20029;-65
2022/11/14 11:19:41;;;;;;;1.95;1.85;;;9.60;99.90;;;;;;5062329;28;20056;-65
2022/11/14 11:22:25;;;;;;;8.00;2.55;;;9.70;99.90;;;;;;5052835;28;20053;-65
2022/11/14 11:24:51;;;;;;;0.85;0.85;;;9.70;99.90;;;;;;5056120;28;20519;-65
2022/11/14 11:27:28;;;;;;;0.73;0.73;;;9.80;99.90;;;;;;5060884;28;20051;-65
2022/11/14 11:30:12;;;;;;;0.50;0.50;;;10.00;99.90;;;;;;5056196;28;20076;-65
2022/11/14 11:32:38;;;;;;;2.13;1.95;;;10.10;99.90;;;;;;5064929;28;20060;-65
2022/11/14 11:35:10;;;;;;;1.40;1.10;;;10.20;99.90;;;;;;5061600;28;20549;-66
2022/11/14 11:37:42;;;;;;;3.28;1.70;;;10.30;99.90;;;;;;5066693;28;20501;-65
2022/11/14 11:40:18;;;;;;;7.68;3.00;;;10.50;99.90;;;;;;5038682;28;20079;-65
2022/11/14 11:43:00;;;;;;;1.50;1.40;;;10.70;99.90;;;;;;5061432;28;20124;-65
2022/11/14 11:45:27;;;;;;;2.30;2.10;;;10.90;99.90;;;;;;5065661;28;20044;-65
2022/11/14 11:48:01;;;;;;;1.63;1.52;;;11.00;99.90;;;;;;5057713;28;20053;-65
2022/11/14 11:50:27;;;;;;;1.25;1.23;;;10.90;99.90;;;;;;5042946;28;20053;-65
2022/11/14 11:53:20;;;;;;;1.75;1.65;;;10.90;99.90;;;;;;5072694;28;20094;-65
2022/11/14 11:55:50;;;;;;;1.02;1.02;;;10.80;99.90;;;;;;5064091;28;20503;-65
2022/11/14 11:58:21;;;;;;;4.70;2.30;;;10.70;99.90;;;;;;5066981;28;20075;-65
2022/11/14 12:00:51;;;;;;;1.42;1.30;;;10.70;99.90;;;;;;5059545;28;20183;-65
2022/11/14 12:03:16;;;;;;;9.43;2.60;;;10.50;99.90;;;;;;5064261;28;20857;-65
2022/11/14 12:05:50;;;;;;;3.70;1.92;;;10.50;99.90;;;;;;5057926;28;20041;-65
2022/11/14 12:08:49;;;;;;;2.85;0.60;;;10.40;99.90;;;;;;5064634;28;20949;-64
2022/11/14 12:11:19;;;;;;;2.20;2.10;;;10.50;99.90;;;;;;5065505;28;20041;-65
2022/11/14 12:14:22;;;;;;;1.88;1.17;;;10.60;99.90;;;;;;5058183;28;20060;-65
2022/11/14 12:17:16;;;;;;;0.75;0.75;;;10.60;99.90;;;;;;5053532;28;20055;-65
2022/11/14 12:20:00;;;;;;;8.50;3.20;;;10.60;99.90;;;;;;5036628;28;20064;-65
2022/11/14 12:22:47;;;;;;;2.30;2.15;;;10.50;99.90;;;;;;5052307;28;20053;-65
2022/11/14 12:25:24;;;;;;;1.55;0.82;;;10.60;99.90;;;;;;5038437;28;20480;-66
2022/11/14 12:28:20;;;;;;;6.32;3.53;;;10.70;99.90;;;;;;5063900;28;20052;-65
2022/11/14 12:30:49;;;;;;;1.30;1.30;;;10.60;99.90;;;;;;5064166;28;20094;-65
2022/11/14 12:33:27;;;;;;;1.55;1.25;;;10.70;99.90;;;;;;5055880;28;20045;-65
2022/11/14 12:35:56;;;;;;;1.15;1.05;;;10.90;99.90;;;;;;5060214;28;20056;-65
2022/11/14 12:38:22;;;;;;;0.90;0.90;;;11.10;99.90;;;;;;5065226;28;20445;-65
2022/11/14 12:40:55;;;;;;;0.65;0.65;;;11.40;99.90;;;;;;5065733;28;20377;-65
2022/11/14 12:43:30;;;;;;;1.27;1.27;;;11.60;99.90;;;;;;5043607;28;20045;-65
2022/11/14 12:45:57;;;;;;;0.57;0.57;;;11.80;99.90;;;;;;5066139;28;20043;-65
2022/11/14 12:48:26;;;;;;;2.33;2.22;;;12.00;99.90;;;;;;5054983;28;20476;-65
2022/11/14 12:50:52;;;;;;;0.75;0.73;;;12.20;99.90;;;;;;5058953;28;20434;-65
2022/11/14 12:53:36;;;;;;;1.52;1.42;;;12.40;99.90;;;;;;5061209;28;20047;-65
2022/11/14 12:56:05;;;;;;;1.63;1.25;;;12.50;99.90;;;;;;5045288;28;20044;-66
2022/11/14 12:58:54;;;;;;;2.95;2.75;;;12.50;99.90;;;;;;5067244;28;20127;-66
2022/11/14 13:01:25;;;;;;;3.97;2.53;;;12.80;99.90;;;;;;5060901;28;20048;-66
2022/11/14 13:04:05;;;;;;;1.83;1.73;;;12.70;99.90;;;;;;5057738;28;20088;-65
2022/11/14 13:06:34;;;;;;;4.65;1.98;;;12.90;99.90;;;;;;5043331;28;20382;-65
2022/11/14 13:09:30;;;;;;;2.50;2.05;;;12.90;99.90;;;;;;5059693;28;20129;-65